Weather at Farmville Regional Airport

Public forecast

Using degrees Fahrenheit for public forecast. Weather courtesy of forecast.io.

Current aviation weather report (METAR) for Farmville Regional Airport

Retrieved 2021/01/24 17:35 UTC (0 seconds ago):

KFVX 241735Z AUTO 19004KT 10SM OVC100 04/M10 A3025 RMK AO2 T00411104

Closest aviation forecast (TAF) to Farmville Regional Airport

Closest forecast is Lynchburg Regional Preston Glenn Field, 36.4 nm (67.5 km) W. Retrieved 2021/01/24 12:27 UTC (5 hours ago):

TAF KLYH 241124Z 2412/2512 00000KT P6SM SCT120 FM241800 20007KT P6SM BKN100 FM250000 19003KT P6SM OVC045